Laceys Spring, Alabama
Current Conditions -  °F | °C
As of 12:33 AM on Monday 22 Dec 2014 (Local Time) from KHUA Reporting Station
Overcast Overcast  
Wind Chill: 50°   Ceiling: 1000
Heat Index: 50°   Visibility: 10mi
Dew Point: 46°   Wind: 14mph
Humidity: 87%   Direction: 130°SE
Pressure: 29.99"   Gusts: NA
Location:  34.53°N, 86.6°W
Report Text: KHUA 220633Z AUTO 13012KT 10SM OVC010 10/08 A2999 RMK AO2
Loading
Personal Weather Stations






























Interactive Weather Map New forecast layout! Learn more

10-Day Weather Forecast

Advertisements
Track Severe Weather on mobile